Galt, Canada
Current Conditions -  °F | °C
As of 2:00 PM on Thursday 18 Dec 2014 (Local Time) from CYKF Reporting Station
Overcast Overcast  
Wind Chill: -10°   Ceiling: 1000
Heat Index: -3°   Visibility: 9mi
Dew Point: -4°   Wind: 15mph
Humidity: 93%   Direction: 290°WNW
Pressure: 30.06"   Gusts: 21mph
Location:  43.35°N, 80.3°W
Report Text: CYKF 181900Z AUTO 29013G18KT 9SM OVC010 M03/M04 A3006 RMK SLP193
Loading
Personal Weather Stations






























Interactive Weather Map New forecast layout! Learn more

10-Day Weather Forecast

Advertisements
Track Severe Weather on mobile